<?xml version="1.0" encoding="UTF-8" standalone="no" ?>
<gpx xmlns="http://www.topografix.com/GPX/1/1" xmlns:xsi="http://www.w3.org/2001/XMLSchema-instance" xsi:schemaLocation="http://www.topografix.com/GPX/1/1 http://www.topografix.com/GPX/1/1/gpx.xsd" version="1.1" creator="VisuGPX - https://www.visugpx.com">
  <metadata>
    <name>PARCOURS 16 PLANS D\'HOTONNES</name>
    <desc><![CDATA[Sympa, un peu technique.
Pas tres bien fléché]]></desc>
  </metadata>
  <trk>
    <name><![CDATA[05-JUIL-14 03:25:55 PM]]></name>
    <trkseg>
      <trkpt lat="46.03929" lon="5.70195">
        <ele>1012.89</ele>
        <time>2014-07-05T08:14:53Z</time>
      </trkpt>
      <trkpt lat="46.03886" lon="5.70098">
        <ele>1038.84</ele>
        <time>2014-07-05T08:23:48Z</time>
      </trkpt>
      <trkpt lat="46.03882" lon="5.70079">
        <ele>1037.88</ele>
        <time>2014-07-05T08:27:37Z</time>
      </trkpt>
      <trkpt lat="46.03826" lon="5.70149">
        <ele>1043.65</ele>
        <time>2014-07-05T08:28:26Z</time>
      </trkpt>
      <trkpt lat="46.03858" lon="5.70155">
        <ele>1040.76</ele>
        <time>2014-07-05T08:35:41Z</time>
      </trkpt>
      <trkpt lat="46.03879" lon="5.70069">
        <ele>1036.92</ele>
        <time>2014-07-05T08:36:07Z</time>
      </trkpt>
      <trkpt lat="46.03909" lon="5.69946">
        <ele>1043.65</ele>
        <time>2014-07-05T08:36:47Z</time>
      </trkpt>
      <trkpt lat="46.03975" lon="5.69858">
        <ele>1050.86</ele>
        <time>2014-07-05T08:37:34Z</time>
      </trkpt>
      <trkpt lat="46.04024" lon="5.6975">
        <ele>1058.07</ele>
        <time>2014-07-05T08:38:13Z</time>
      </trkpt>
      <trkpt lat="46.04105" lon="5.69683">
        <ele>1068.16</ele>
        <time>2014-07-05T08:39:16Z</time>
      </trkpt>
      <trkpt lat="46.04197" lon="5.69685">
        <ele>1074.41</ele>
        <time>2014-07-05T08:40:10Z</time>
      </trkpt>
      <trkpt lat="46.04295" lon="5.69708">
        <ele>1076.33</ele>
        <time>2014-07-05T08:41:45Z</time>
      </trkpt>
      <trkpt lat="46.04373" lon="5.69621">
        <ele>1086.91</ele>
        <time>2014-07-05T08:42:46Z</time>
      </trkpt>
      <trkpt lat="46.04463" lon="5.69594">
        <ele>1088.83</ele>
        <time>2014-07-05T08:43:26Z</time>
      </trkpt>
      <trkpt lat="46.04563" lon="5.69615">
        <ele>1096.04</ele>
        <time>2014-07-05T08:44:17Z</time>
      </trkpt>
      <trkpt lat="46.04662" lon="5.69599">
        <ele>1106.13</ele>
        <time>2014-07-05T08:45:22Z</time>
      </trkpt>
      <trkpt lat="46.04774" lon="5.69613">
        <ele>1114.79</ele>
        <time>2014-07-05T08:46:43Z</time>
      </trkpt>
      <trkpt lat="46.04878" lon="5.69641">
        <ele>1120.55</ele>
        <time>2014-07-05T08:49:26Z</time>
      </trkpt>
      <trkpt lat="46.04986" lon="5.69653">
        <ele>1120.55</ele>
        <time>2014-07-05T08:50:03Z</time>
      </trkpt>
      <trkpt lat="46.05078" lon="5.69643">
        <ele>1121.52</ele>
        <time>2014-07-05T08:51:10Z</time>
      </trkpt>
      <trkpt lat="46.05155" lon="5.69549">
        <ele>1128.24</ele>
        <time>2014-07-05T08:52:11Z</time>
      </trkpt>
      <trkpt lat="46.05266" lon="5.69635">
        <ele>1122</ele>
        <time>2014-07-05T08:54:48Z</time>
      </trkpt>
      <trkpt lat="46.05283" lon="5.69775">
        <ele>1121.52</ele>
        <time>2014-07-05T08:55:19Z</time>
      </trkpt>
      <trkpt lat="46.0534" lon="5.69906">
        <ele>1126.32</ele>
        <time>2014-07-05T08:56:04Z</time>
      </trkpt>
      <trkpt lat="46.05418" lon="5.70004">
        <ele>1129.69</ele>
        <time>2014-07-05T08:56:46Z</time>
      </trkpt>
      <trkpt lat="46.0547" lon="5.70113">
        <ele>1133.05</ele>
        <time>2014-07-05T08:57:25Z</time>
      </trkpt>
      <trkpt lat="46.05508" lon="5.70229">
        <ele>1134.97</ele>
        <time>2014-07-05T08:58:00Z</time>
      </trkpt>
      <trkpt lat="46.05577" lon="5.70312">
        <ele>1139.78</ele>
        <time>2014-07-05T08:58:39Z</time>
      </trkpt>
      <trkpt lat="46.05621" lon="5.70429">
        <ele>1143.14</ele>
        <time>2014-07-05T08:59:18Z</time>
      </trkpt>
      <trkpt lat="46.05588" lon="5.70545">
        <ele>1142.66</ele>
        <time>2014-07-05T08:59:52Z</time>
      </trkpt>
      <trkpt lat="46.05536" lon="5.70658">
        <ele>1149.39</ele>
        <time>2014-07-05T09:00:36Z</time>
      </trkpt>
      <trkpt lat="46.05517" lon="5.70792">
        <ele>1157.08</ele>
        <time>2014-07-05T09:01:26Z</time>
      </trkpt>
      <trkpt lat="46.05539" lon="5.70944">
        <ele>1167.18</ele>
        <time>2014-07-05T09:02:39Z</time>
      </trkpt>
      <trkpt lat="46.05541" lon="5.7109">
        <ele>1171.98</ele>
        <time>2014-07-05T09:03:30Z</time>
      </trkpt>
      <trkpt lat="46.05505" lon="5.71223">
        <ele>1171.5</ele>
        <time>2014-07-05T09:05:50Z</time>
      </trkpt>
      <trkpt lat="46.05431" lon="5.713">
        <ele>1182.08</ele>
        <time>2014-07-05T09:06:42Z</time>
      </trkpt>
      <trkpt lat="46.05348" lon="5.71358">
        <ele>1177.75</ele>
        <time>2014-07-05T09:07:07Z</time>
      </trkpt>
      <trkpt lat="46.05268" lon="5.71421">
        <ele>1178.23</ele>
        <time>2014-07-05T09:07:29Z</time>
      </trkpt>
      <trkpt lat="46.05175" lon="5.71427">
        <ele>1180.16</ele>
        <time>2014-07-05T09:08:03Z</time>
      </trkpt>
      <trkpt lat="46.05093" lon="5.71484">
        <ele>1180.16</ele>
        <time>2014-07-05T09:08:34Z</time>
      </trkpt>
      <trkpt lat="46.05016" lon="5.7156">
        <ele>1178.23</ele>
        <time>2014-07-05T09:09:08Z</time>
      </trkpt>
      <trkpt lat="46.04934" lon="5.71609">
        <ele>1173.43</ele>
        <time>2014-07-05T09:09:23Z</time>
      </trkpt>
      <trkpt lat="46.04847" lon="5.71565">
        <ele>1171.5</ele>
        <time>2014-07-05T09:09:41Z</time>
      </trkpt>
      <trkpt lat="46.04754" lon="5.71526">
        <ele>1175.83</ele>
        <time>2014-07-05T09:10:19Z</time>
      </trkpt>
      <trkpt lat="46.04659" lon="5.71577">
        <ele>1176.79</ele>
        <time>2014-07-05T09:10:48Z</time>
      </trkpt>
      <trkpt lat="46.04566" lon="5.71624">
        <ele>1172.47</ele>
        <time>2014-07-05T09:11:13Z</time>
      </trkpt>
      <trkpt lat="46.04488" lon="5.7169">
        <ele>1168.14</ele>
        <time>2014-07-05T09:11:31Z</time>
      </trkpt>
      <trkpt lat="46.04429" lon="5.71764">
        <ele>1175.35</ele>
        <time>2014-07-05T09:12:43Z</time>
      </trkpt>
      <trkpt lat="46.04359" lon="5.71844">
        <ele>1177.27</ele>
        <time>2014-07-05T09:13:24Z</time>
      </trkpt>
      <trkpt lat="46.04304" lon="5.71945">
        <ele>1184</ele>
        <time>2014-07-05T09:14:07Z</time>
      </trkpt>
      <trkpt lat="46.04288" lon="5.72079">
        <ele>1192.65</ele>
        <time>2014-07-05T09:15:02Z</time>
      </trkpt>
      <trkpt lat="46.04245" lon="5.72172">
        <ele>1197.46</ele>
        <time>2014-07-05T09:18:41Z</time>
      </trkpt>
      <trkpt lat="46.04183" lon="5.72268">
        <ele>1195.54</ele>
        <time>2014-07-05T09:19:01Z</time>
      </trkpt>
      <trkpt lat="46.04105" lon="5.72336">
        <ele>1192.17</ele>
        <time>2014-07-05T09:19:21Z</time>
      </trkpt>
      <trkpt lat="46.04017" lon="5.72357">
        <ele>1187.37</ele>
        <time>2014-07-05T09:19:44Z</time>
      </trkpt>
      <trkpt lat="46.03925" lon="5.72362">
        <ele>1185.92</ele>
        <time>2014-07-05T09:20:03Z</time>
      </trkpt>
      <trkpt lat="46.03834" lon="5.7237">
        <ele>1182.08</ele>
        <time>2014-07-05T09:20:22Z</time>
      </trkpt>
      <trkpt lat="46.03744" lon="5.72368">
        <ele>1181.12</ele>
        <time>2014-07-05T09:20:41Z</time>
      </trkpt>
      <trkpt lat="46.03655" lon="5.7235">
        <ele>1177.27</ele>
        <time>2014-07-05T09:21:03Z</time>
      </trkpt>
      <trkpt lat="46.03594" lon="5.72266">
        <ele>1173.43</ele>
        <time>2014-07-05T09:22:53Z</time>
      </trkpt>
      <trkpt lat="46.03504" lon="5.72302">
        <ele>1165.26</ele>
        <time>2014-07-05T09:23:45Z</time>
      </trkpt>
      <trkpt lat="46.03422" lon="5.72364">
        <ele>1158.53</ele>
        <time>2014-07-05T09:24:02Z</time>
      </trkpt>
      <trkpt lat="46.03371" lon="5.7228">
        <ele>1159.49</ele>
        <time>2014-07-05T09:25:26Z</time>
      </trkpt>
      <trkpt lat="46.03313" lon="5.72185">
        <ele>1163.33</ele>
        <time>2014-07-05T09:26:03Z</time>
      </trkpt>
      <trkpt lat="46.03249" lon="5.72087">
        <ele>1159.97</ele>
        <time>2014-07-05T09:26:54Z</time>
      </trkpt>
      <trkpt lat="46.03293" lon="5.7198">
        <ele>1151.8</ele>
        <time>2014-07-05T09:27:13Z</time>
      </trkpt>
      <trkpt lat="46.03386" lon="5.71971">
        <ele>1151.8</ele>
        <time>2014-07-05T09:27:31Z</time>
      </trkpt>
      <trkpt lat="46.03475" lon="5.71974">
        <ele>1154.2</ele>
        <time>2014-07-05T09:27:59Z</time>
      </trkpt>
      <trkpt lat="46.03541" lon="5.71875">
        <ele>1147.95</ele>
        <time>2014-07-05T09:28:14Z</time>
      </trkpt>
      <trkpt lat="46.03607" lon="5.71771">
        <ele>1141.7</ele>
        <time>2014-07-05T09:28:25Z</time>
      </trkpt>
      <trkpt lat="46.03652" lon="5.71655">
        <ele>1136.9</ele>
        <time>2014-07-05T09:28:39Z</time>
      </trkpt>
      <trkpt lat="46.03716" lon="5.71566">
        <ele>1129.69</ele>
        <time>2014-07-05T09:31:54Z</time>
      </trkpt>
      <trkpt lat="46.03727" lon="5.71432">
        <ele>1128.24</ele>
        <time>2014-07-05T09:32:09Z</time>
      </trkpt>
      <trkpt lat="46.03695" lon="5.71317">
        <ele>1124.88</ele>
        <time>2014-07-05T09:32:24Z</time>
      </trkpt>
      <trkpt lat="46.03743" lon="5.71183">
        <ele>1110.94</ele>
        <time>2014-07-05T09:32:38Z</time>
      </trkpt>
      <trkpt lat="46.03736" lon="5.71048">
        <ele>1103.25</ele>
        <time>2014-07-05T09:32:51Z</time>
      </trkpt>
      <trkpt lat="46.03783" lon="5.70955">
        <ele>1091.71</ele>
        <time>2014-07-05T09:33:07Z</time>
      </trkpt>
      <trkpt lat="46.03846" lon="5.70884">
        <ele>1078.26</ele>
        <time>2014-07-05T09:33:26Z</time>
      </trkpt>
      <trkpt lat="46.03869" lon="5.70789">
        <ele>1068.16</ele>
        <time>2014-07-05T09:33:43Z</time>
      </trkpt>
      <trkpt lat="46.0394" lon="5.70853">
        <ele>1066.24</ele>
        <time>2014-07-05T09:36:08Z</time>
      </trkpt>
      <trkpt lat="46.04002" lon="5.70767">
        <ele>1059.99</ele>
        <time>2014-07-05T09:37:24Z</time>
      </trkpt>
      <trkpt lat="46.03968" lon="5.70637">
        <ele>1054.22</ele>
        <time>2014-07-05T09:37:38Z</time>
      </trkpt>
      <trkpt lat="46.03958" lon="5.70503">
        <ele>1047.97</ele>
        <time>2014-07-05T09:38:38Z</time>
      </trkpt>
      <trkpt lat="46.03971" lon="5.70372">
        <ele>1043.65</ele>
        <time>2014-07-05T09:38:52Z</time>
      </trkpt>
      <trkpt lat="46.03927" lon="5.70254">
        <ele>1039.32</ele>
        <time>2014-07-05T09:39:05Z</time>
      </trkpt>
      <trkpt lat="46.0389" lon="5.7013">
        <ele>1037.4</ele>
        <time>2014-07-05T09:39:18Z</time>
      </trkpt>
      <trkpt lat="46.0389" lon="5.69997">
        <ele>1039.32</ele>
        <time>2014-07-05T09:39:30Z</time>
      </trkpt>
      <trkpt lat="46.03941" lon="5.69887">
        <ele>1049.42</ele>
        <time>2014-07-05T09:40:12Z</time>
      </trkpt>
      <trkpt lat="46.04009" lon="5.69801">
        <ele>1050.86</ele>
        <time>2014-07-05T09:40:46Z</time>
      </trkpt>
      <trkpt lat="46.0407" lon="5.69711">
        <ele>1062.87</ele>
        <time>2014-07-05T09:41:47Z</time>
      </trkpt>
      <trkpt lat="46.04159" lon="5.69673">
        <ele>1069.6</ele>
        <time>2014-07-05T09:42:50Z</time>
      </trkpt>
      <trkpt lat="46.04257" lon="5.69706">
        <ele>1072.97</ele>
        <time>2014-07-05T09:43:42Z</time>
      </trkpt>
      <trkpt lat="46.04348" lon="5.69639">
        <ele>1083.54</ele>
        <time>2014-07-05T09:44:42Z</time>
      </trkpt>
      <trkpt lat="46.04445" lon="5.696">
        <ele>1083.54</ele>
        <time>2014-07-05T09:45:27Z</time>
      </trkpt>
      <trkpt lat="46.04546" lon="5.69621">
        <ele>1091.23</ele>
        <time>2014-07-05T09:46:25Z</time>
      </trkpt>
      <trkpt lat="46.04644" lon="5.696">
        <ele>1102.29</ele>
        <time>2014-07-05T09:47:37Z</time>
      </trkpt>
      <trkpt lat="46.04762" lon="5.69612">
        <ele>1113.82</ele>
        <time>2014-07-05T09:49:13Z</time>
      </trkpt>
      <trkpt lat="46.04905" lon="5.69646">
        <ele>1121.52</ele>
        <time>2014-07-05T09:50:42Z</time>
      </trkpt>
      <trkpt lat="46.05021" lon="5.69672">
        <ele>1115.75</ele>
        <time>2014-07-05T09:51:23Z</time>
      </trkpt>
      <trkpt lat="46.05144" lon="5.69561">
        <ele>1128.73</ele>
        <time>2014-07-05T09:53:33Z</time>
      </trkpt>
      <trkpt lat="46.05237" lon="5.69593">
        <ele>1120.55</ele>
        <time>2014-07-05T09:55:40Z</time>
      </trkpt>
      <trkpt lat="46.05277" lon="5.69708">
        <ele>1121.52</ele>
        <time>2014-07-05T09:56:03Z</time>
      </trkpt>
      <trkpt lat="46.05315" lon="5.69837">
        <ele>1123.92</ele>
        <time>2014-07-05T09:56:35Z</time>
      </trkpt>
      <trkpt lat="46.05379" lon="5.69954">
        <ele>1127.28</ele>
        <time>2014-07-05T09:57:35Z</time>
      </trkpt>
      <trkpt lat="46.05442" lon="5.70046">
        <ele>1131.61</ele>
        <time>2014-07-05T09:58:25Z</time>
      </trkpt>
      <trkpt lat="46.05493" lon="5.70155">
        <ele>1134.49</ele>
        <time>2014-07-05T09:59:04Z</time>
      </trkpt>
      <trkpt lat="46.05536" lon="5.70261">
        <ele>1137.86</ele>
        <time>2014-07-05T09:59:49Z</time>
      </trkpt>
      <trkpt lat="46.05595" lon="5.70358">
        <ele>1141.7</ele>
        <time>2014-07-05T10:00:31Z</time>
      </trkpt>
      <trkpt lat="46.05633" lon="5.70475">
        <ele>1144.11</ele>
        <time>2014-07-05T10:01:14Z</time>
      </trkpt>
      <trkpt lat="46.05715" lon="5.70548">
        <ele>1151.8</ele>
        <time>2014-07-05T10:02:24Z</time>
      </trkpt>
      <trkpt lat="46.05785" lon="5.70631">
        <ele>1162.85</ele>
        <time>2014-07-05T10:05:02Z</time>
      </trkpt>
      <trkpt lat="46.0585" lon="5.70718">
        <ele>1177.27</ele>
        <time>2014-07-05T10:07:38Z</time>
      </trkpt>
      <trkpt lat="46.05938" lon="5.70779">
        <ele>1179.67</ele>
        <time>2014-07-05T10:10:29Z</time>
      </trkpt>
      <trkpt lat="46.06018" lon="5.70809">
        <ele>1180.16</ele>
        <time>2014-07-05T10:11:22Z</time>
      </trkpt>
      <trkpt lat="46.0609" lon="5.70886">
        <ele>1187.85</ele>
        <time>2014-07-05T10:12:19Z</time>
      </trkpt>
      <trkpt lat="46.06127" lon="5.70984">
        <ele>1198.9</ele>
        <time>2014-07-05T10:14:10Z</time>
      </trkpt>
      <trkpt lat="46.06126" lon="5.71111">
        <ele>1202.27</ele>
        <time>2014-07-05T10:15:06Z</time>
      </trkpt>
      <trkpt lat="46.06206" lon="5.71183">
        <ele>1206.11</ele>
        <time>2014-07-05T10:16:01Z</time>
      </trkpt>
      <trkpt lat="46.06302" lon="5.71236">
        <ele>1218.61</ele>
        <time>2014-07-05T10:17:56Z</time>
      </trkpt>
      <trkpt lat="46.06371" lon="5.71318">
        <ele>1225.34</ele>
        <time>2014-07-05T10:19:37Z</time>
      </trkpt>
      <trkpt lat="46.06442" lon="5.71399">
        <ele>1228.7</ele>
        <time>2014-07-05T10:20:33Z</time>
      </trkpt>
      <trkpt lat="46.06509" lon="5.7148">
        <ele>1237.35</ele>
        <time>2014-07-05T10:22:32Z</time>
      </trkpt>
      <trkpt lat="46.06585" lon="5.71553">
        <ele>1235.43</ele>
        <time>2014-07-05T10:23:58Z</time>
      </trkpt>
      <trkpt lat="46.06657" lon="5.71629">
        <ele>1235.43</ele>
        <time>2014-07-05T10:24:21Z</time>
      </trkpt>
      <trkpt lat="46.06732" lon="5.71698">
        <ele>1237.83</ele>
        <time>2014-07-05T10:25:06Z</time>
      </trkpt>
      <trkpt lat="46.06822" lon="5.71721">
        <ele>1242.16</ele>
        <time>2014-07-05T10:26:04Z</time>
      </trkpt>
      <trkpt lat="46.06909" lon="5.71753">
        <ele>1242.64</ele>
        <time>2014-07-05T10:27:45Z</time>
      </trkpt>
      <trkpt lat="46.06998" lon="5.71778">
        <ele>1240.24</ele>
        <time>2014-07-05T10:29:54Z</time>
      </trkpt>
      <trkpt lat="46.07091" lon="5.71785">
        <ele>1236.87</ele>
        <time>2014-07-05T10:30:22Z</time>
      </trkpt>
      <trkpt lat="46.07172" lon="5.71825">
        <ele>1235.43</ele>
        <time>2014-07-05T10:30:57Z</time>
      </trkpt>
      <trkpt lat="46.07267" lon="5.7184">
        <ele>1229.66</ele>
        <time>2014-07-05T10:31:15Z</time>
      </trkpt>
      <trkpt lat="46.07357" lon="5.71829">
        <ele>1225.82</ele>
        <time>2014-07-05T10:31:30Z</time>
      </trkpt>
      <trkpt lat="46.07427" lon="5.7188">
        <ele>1226.3</ele>
        <time>2014-07-05T10:36:19Z</time>
      </trkpt>
      <trkpt lat="46.0744" lon="5.72008">
        <ele>1224.38</ele>
        <time>2014-07-05T10:36:53Z</time>
      </trkpt>
      <trkpt lat="46.0745" lon="5.72142">
        <ele>1222.45</ele>
        <time>2014-07-05T10:37:22Z</time>
      </trkpt>
      <trkpt lat="46.07498" lon="5.72251">
        <ele>1219.57</ele>
        <time>2014-07-05T10:37:44Z</time>
      </trkpt>
      <trkpt lat="46.07564" lon="5.7234">
        <ele>1217.17</ele>
        <time>2014-07-05T10:38:04Z</time>
      </trkpt>
      <trkpt lat="46.07629" lon="5.72424">
        <ele>1226.78</ele>
        <time>2014-07-05T10:39:05Z</time>
      </trkpt>
      <trkpt lat="46.07681" lon="5.7243">
        <ele>1226.3</ele>
        <time>2014-07-05T10:42:53Z</time>
      </trkpt>
      <trkpt lat="46.07742" lon="5.72336">
        <ele>1220.53</ele>
        <time>2014-07-05T10:43:12Z</time>
      </trkpt>
      <trkpt lat="46.07791" lon="5.72229">
        <ele>1228.7</ele>
        <time>2014-07-05T10:44:06Z</time>
      </trkpt>
      <trkpt lat="46.07769" lon="5.72083">
        <ele>1241.68</ele>
        <time>2014-07-05T10:46:29Z</time>
      </trkpt>
      <trkpt lat="46.07794" lon="5.71964">
        <ele>1235.43</ele>
        <time>2014-07-05T10:46:58Z</time>
      </trkpt>
      <trkpt lat="46.07841" lon="5.71853">
        <ele>1238.8</ele>
        <time>2014-07-05T10:47:37Z</time>
      </trkpt>
      <trkpt lat="46.07929" lon="5.71817">
        <ele>1243.12</ele>
        <time>2014-07-05T10:49:35Z</time>
      </trkpt>
      <trkpt lat="46.08029" lon="5.71777">
        <ele>1237.35</ele>
        <time>2014-07-05T10:50:09Z</time>
      </trkpt>
      <trkpt lat="46.08115" lon="5.71767">
        <ele>1236.39</ele>
        <time>2014-07-05T10:51:08Z</time>
      </trkpt>
      <trkpt lat="46.08207" lon="5.71758">
        <ele>1237.83</ele>
        <time>2014-07-05T10:51:47Z</time>
      </trkpt>
      <trkpt lat="46.08297" lon="5.71776">
        <ele>1240.24</ele>
        <time>2014-07-05T10:52:39Z</time>
      </trkpt>
      <trkpt lat="46.08385" lon="5.71812">
        <ele>1237.35</ele>
        <time>2014-07-05T10:53:14Z</time>
      </trkpt>
      <trkpt lat="46.08464" lon="5.71859">
        <ele>1239.76</ele>
        <time>2014-07-05T11:09:12Z</time>
      </trkpt>
      <trkpt lat="46.08546" lon="5.719">
        <ele>1246.01</ele>
        <time>2014-07-05T11:11:06Z</time>
      </trkpt>
      <trkpt lat="46.08628" lon="5.71964">
        <ele>1252.25</ele>
        <time>2014-07-05T11:12:49Z</time>
      </trkpt>
      <trkpt lat="46.08718" lon="5.71976">
        <ele>1262.35</ele>
        <time>2014-07-05T11:14:09Z</time>
      </trkpt>
      <trkpt lat="46.08804" lon="5.72012">
        <ele>1270.52</ele>
        <time>2014-07-05T11:15:50Z</time>
      </trkpt>
      <trkpt lat="46.08855" lon="5.72084">
        <ele>1269.08</ele>
        <time>2014-07-05T11:25:06Z</time>
      </trkpt>
      <trkpt lat="46.08937" lon="5.72116">
        <ele>1269.08</ele>
        <time>2014-07-05T11:30:28Z</time>
      </trkpt>
      <trkpt lat="46.09011" lon="5.72147">
        <ele>1266.19</ele>
        <time>2014-07-05T11:32:41Z</time>
      </trkpt>
      <trkpt lat="46.09048" lon="5.72136">
        <ele>1268.12</ele>
        <time>2014-07-05T11:44:54Z</time>
      </trkpt>
      <trkpt lat="46.09138" lon="5.72166">
        <ele>1269.56</ele>
        <time>2014-07-05T11:45:35Z</time>
      </trkpt>
      <trkpt lat="46.09227" lon="5.72173">
        <ele>1275.81</ele>
        <time>2014-07-05T11:46:20Z</time>
      </trkpt>
      <trkpt lat="46.09305" lon="5.7211">
        <ele>1273.4</ele>
        <time>2014-07-05T11:46:49Z</time>
      </trkpt>
      <trkpt lat="46.09388" lon="5.72047">
        <ele>1270.04</ele>
        <time>2014-07-05T11:47:07Z</time>
      </trkpt>
      <trkpt lat="46.09472" lon="5.71995">
        <ele>1270.04</ele>
        <time>2014-07-05T11:47:25Z</time>
      </trkpt>
      <trkpt lat="46.09558" lon="5.71971">
        <ele>1269.08</ele>
        <time>2014-07-05T11:47:43Z</time>
      </trkpt>
      <trkpt lat="46.09645" lon="5.72004">
        <ele>1269.56</ele>
        <time>2014-07-05T11:48:01Z</time>
      </trkpt>
      <trkpt lat="46.09731" lon="5.72035">
        <ele>1276.29</ele>
        <time>2014-07-05T11:48:45Z</time>
      </trkpt>
      <trkpt lat="46.0982" lon="5.72063">
        <ele>1267.16</ele>
        <time>2014-07-05T11:49:02Z</time>
      </trkpt>
      <trkpt lat="46.09911" lon="5.72075">
        <ele>1261.87</ele>
        <time>2014-07-05T11:49:12Z</time>
      </trkpt>
      <trkpt lat="46.09999" lon="5.7211">
        <ele>1255.14</ele>
        <time>2014-07-05T11:49:23Z</time>
      </trkpt>
      <trkpt lat="46.10089" lon="5.72098">
        <ele>1256.58</ele>
        <time>2014-07-05T11:49:47Z</time>
      </trkpt>
      <trkpt lat="46.10179" lon="5.72127">
        <ele>1258.02</ele>
        <time>2014-07-05T11:50:21Z</time>
      </trkpt>
      <trkpt lat="46.10263" lon="5.72187">
        <ele>1252.74</ele>
        <time>2014-07-05T11:50:39Z</time>
      </trkpt>
      <trkpt lat="46.10338" lon="5.7227">
        <ele>1239.28</ele>
        <time>2014-07-05T11:50:51Z</time>
      </trkpt>
      <trkpt lat="46.10422" lon="5.72238">
        <ele>1235.43</ele>
        <time>2014-07-05T11:51:04Z</time>
      </trkpt>
      <trkpt lat="46.10516" lon="5.72253">
        <ele>1230.62</ele>
        <time>2014-07-05T11:51:16Z</time>
      </trkpt>
      <trkpt lat="46.10591" lon="5.72202">
        <ele>1221.49</ele>
        <time>2014-07-05T11:51:28Z</time>
      </trkpt>
      <trkpt lat="46.10683" lon="5.72179">
        <ele>1215.24</ele>
        <time>2014-07-05T11:51:41Z</time>
      </trkpt>
      <trkpt lat="46.10767" lon="5.72223">
        <ele>1208.51</ele>
        <time>2014-07-05T11:51:51Z</time>
      </trkpt>
      <trkpt lat="46.10862" lon="5.72244">
        <ele>1201.3</ele>
        <time>2014-07-05T11:52:04Z</time>
      </trkpt>
      <trkpt lat="46.10949" lon="5.72278">
        <ele>1198.9</ele>
        <time>2014-07-05T11:52:15Z</time>
      </trkpt>
      <trkpt lat="46.11032" lon="5.72329">
        <ele>1197.46</ele>
        <time>2014-07-05T11:52:26Z</time>
      </trkpt>
      <trkpt lat="46.11113" lon="5.72393">
        <ele>1192.65</ele>
        <time>2014-07-05T11:52:37Z</time>
      </trkpt>
      <trkpt lat="46.11186" lon="5.72483">
        <ele>1187.37</ele>
        <time>2014-07-05T11:52:49Z</time>
      </trkpt>
      <trkpt lat="46.11244" lon="5.72592">
        <ele>1182.56</ele>
        <time>2014-07-05T11:53:00Z</time>
      </trkpt>
      <trkpt lat="46.11302" lon="5.72696">
        <ele>1179.19</ele>
        <time>2014-07-05T11:53:10Z</time>
      </trkpt>
      <trkpt lat="46.1136" lon="5.72795">
        <ele>1177.27</ele>
        <time>2014-07-05T11:53:25Z</time>
      </trkpt>
      <trkpt lat="46.11318" lon="5.72892">
        <ele>1178.71</ele>
        <time>2014-07-05T11:54:20Z</time>
      </trkpt>
      <trkpt lat="46.11258" lon="5.72987">
        <ele>1181.12</ele>
        <time>2014-07-05T11:54:51Z</time>
      </trkpt>
      <trkpt lat="46.11213" lon="5.73102">
        <ele>1181.6</ele>
        <time>2014-07-05T11:55:16Z</time>
      </trkpt>
      <trkpt lat="46.11184" lon="5.73233">
        <ele>1177.27</ele>
        <time>2014-07-05T11:55:27Z</time>
      </trkpt>
      <trkpt lat="46.11157" lon="5.7336">
        <ele>1174.39</ele>
        <time>2014-07-05T11:55:36Z</time>
      </trkpt>
      <trkpt lat="46.11139" lon="5.73492">
        <ele>1172.95</ele>
        <time>2014-07-05T11:55:47Z</time>
      </trkpt>
      <trkpt lat="46.11072" lon="5.73552">
        <ele>1170.54</ele>
        <time>2014-07-05T11:56:05Z</time>
      </trkpt>
      <trkpt lat="46.10982" lon="5.7354">
        <ele>1170.06</ele>
        <time>2014-07-05T11:56:27Z</time>
      </trkpt>
      <trkpt lat="46.1089" lon="5.73494">
        <ele>1171.98</ele>
        <time>2014-07-05T11:56:49Z</time>
      </trkpt>
      <trkpt lat="46.10801" lon="5.73459">
        <ele>1177.27</ele>
        <time>2014-07-05T11:57:27Z</time>
      </trkpt>
      <trkpt lat="46.10734" lon="5.7351">
        <ele>1182.56</ele>
        <time>2014-07-05T11:58:20Z</time>
      </trkpt>
      <trkpt lat="46.10787" lon="5.73646">
        <ele>1191.21</ele>
        <time>2014-07-05T11:59:30Z</time>
      </trkpt>
      <trkpt lat="46.10868" lon="5.73762">
        <ele>1201.79</ele>
        <time>2014-07-05T12:00:55Z</time>
      </trkpt>
      <trkpt lat="46.1076" lon="5.73819">
        <ele>1206.59</ele>
        <time>2014-07-05T12:02:03Z</time>
      </trkpt>
      <trkpt lat="46.10671" lon="5.73862">
        <ele>1206.11</ele>
        <time>2014-07-05T12:02:23Z</time>
      </trkpt>
      <trkpt lat="46.10566" lon="5.73889">
        <ele>1216.21</ele>
        <time>2014-07-05T12:03:25Z</time>
      </trkpt>
      <trkpt lat="46.10479" lon="5.73934">
        <ele>1218.61</ele>
        <time>2014-07-05T12:04:17Z</time>
      </trkpt>
      <trkpt lat="46.10382" lon="5.73888">
        <ele>1219.57</ele>
        <time>2014-07-05T12:05:31Z</time>
      </trkpt>
      <trkpt lat="46.10282" lon="5.73834">
        <ele>1224.86</ele>
        <time>2014-07-05T12:06:31Z</time>
      </trkpt>
      <trkpt lat="46.1017" lon="5.73795">
        <ele>1231.59</ele>
        <time>2014-07-05T12:07:38Z</time>
      </trkpt>
      <trkpt lat="46.10086" lon="5.7373">
        <ele>1231.59</ele>
        <time>2014-07-05T12:08:13Z</time>
      </trkpt>
      <trkpt lat="46.09997" lon="5.7369">
        <ele>1233.03</ele>
        <time>2014-07-05T12:08:44Z</time>
      </trkpt>
      <trkpt lat="46.09906" lon="5.73642">
        <ele>1231.59</ele>
        <time>2014-07-05T12:09:07Z</time>
      </trkpt>
      <trkpt lat="46.09813" lon="5.73618">
        <ele>1232.55</ele>
        <time>2014-07-05T12:09:30Z</time>
      </trkpt>
      <trkpt lat="46.09715" lon="5.73585">
        <ele>1233.99</ele>
        <time>2014-07-05T12:10:00Z</time>
      </trkpt>
      <trkpt lat="46.09623" lon="5.73537">
        <ele>1233.51</ele>
        <time>2014-07-05T12:10:22Z</time>
      </trkpt>
      <trkpt lat="46.09542" lon="5.7347">
        <ele>1237.83</ele>
        <time>2014-07-05T12:10:52Z</time>
      </trkpt>
      <trkpt lat="46.09451" lon="5.73427">
        <ele>1243.12</ele>
        <time>2014-07-05T12:11:39Z</time>
      </trkpt>
      <trkpt lat="46.09352" lon="5.73384">
        <ele>1245.53</ele>
        <time>2014-07-05T12:12:27Z</time>
      </trkpt>
      <trkpt lat="46.09234" lon="5.73326">
        <ele>1247.45</ele>
        <time>2014-07-05T12:13:01Z</time>
      </trkpt>
      <trkpt lat="46.09145" lon="5.73288">
        <ele>1247.45</ele>
        <time>2014-07-05T12:13:28Z</time>
      </trkpt>
      <trkpt lat="46.09058" lon="5.7326">
        <ele>1255.14</ele>
        <time>2014-07-05T12:27:25Z</time>
      </trkpt>
      <trkpt lat="46.08968" lon="5.73237">
        <ele>1259.94</ele>
        <time>2014-07-05T12:28:21Z</time>
      </trkpt>
      <trkpt lat="46.08875" lon="5.73217">
        <ele>1259.46</ele>
        <time>2014-07-05T12:28:42Z</time>
      </trkpt>
      <trkpt lat="46.08784" lon="5.73195">
        <ele>1257.54</ele>
        <time>2014-07-05T12:28:59Z</time>
      </trkpt>
      <trkpt lat="46.08694" lon="5.73173">
        <ele>1257.06</ele>
        <time>2014-07-05T12:29:15Z</time>
      </trkpt>
      <trkpt lat="46.08604" lon="5.73152">
        <ele>1261.39</ele>
        <time>2014-07-05T12:29:39Z</time>
      </trkpt>
      <trkpt lat="46.08512" lon="5.73149">
        <ele>1265.23</ele>
        <time>2014-07-05T12:30:15Z</time>
      </trkpt>
      <trkpt lat="46.08421" lon="5.73146">
        <ele>1266.19</ele>
        <time>2014-07-05T12:30:42Z</time>
      </trkpt>
      <trkpt lat="46.08331" lon="5.73155">
        <ele>1266.67</ele>
        <time>2014-07-05T12:31:10Z</time>
      </trkpt>
      <trkpt lat="46.08238" lon="5.73149">
        <ele>1265.23</ele>
        <time>2014-07-05T12:31:32Z</time>
      </trkpt>
      <trkpt lat="46.08147" lon="5.73157">
        <ele>1263.31</ele>
        <time>2014-07-05T12:31:47Z</time>
      </trkpt>
      <trkpt lat="46.08054" lon="5.73141">
        <ele>1261.39</ele>
        <time>2014-07-05T12:32:00Z</time>
      </trkpt>
      <trkpt lat="46.07966" lon="5.73099">
        <ele>1256.1</ele>
        <time>2014-07-05T12:32:11Z</time>
      </trkpt>
      <trkpt lat="46.07884" lon="5.73038">
        <ele>1249.37</ele>
        <time>2014-07-05T12:32:21Z</time>
      </trkpt>
      <trkpt lat="46.07837" lon="5.72916">
        <ele>1246.49</ele>
        <time>2014-07-05T12:32:32Z</time>
      </trkpt>
      <trkpt lat="46.07756" lon="5.72858">
        <ele>1239.76</ele>
        <time>2014-07-05T12:32:42Z</time>
      </trkpt>
      <trkpt lat="46.07663" lon="5.72831">
        <ele>1234.47</ele>
        <time>2014-07-05T12:32:54Z</time>
      </trkpt>
      <trkpt lat="46.07659" lon="5.72705">
        <ele>1230.14</ele>
        <time>2014-07-05T12:33:30Z</time>
      </trkpt>
      <trkpt lat="46.07679" lon="5.72578">
        <ele>1228.7</ele>
        <time>2014-07-05T12:33:51Z</time>
      </trkpt>
      <trkpt lat="46.07651" lon="5.72469">
        <ele>1232.07</ele>
        <time>2014-07-05T12:36:18Z</time>
      </trkpt>
      <trkpt lat="46.07588" lon="5.7237">
        <ele>1221.97</ele>
        <time>2014-07-05T12:36:37Z</time>
      </trkpt>
      <trkpt lat="46.07526" lon="5.72275">
        <ele>1220.53</ele>
        <time>2014-07-05T12:36:52Z</time>
      </trkpt>
      <trkpt lat="46.07464" lon="5.72189">
        <ele>1223.42</ele>
        <time>2014-07-05T12:37:29Z</time>
      </trkpt>
      <trkpt lat="46.07445" lon="5.72063">
        <ele>1227.74</ele>
        <time>2014-07-05T12:38:21Z</time>
      </trkpt>
      <trkpt lat="46.07439" lon="5.7193">
        <ele>1227.74</ele>
        <time>2014-07-05T12:38:57Z</time>
      </trkpt>
      <trkpt lat="46.0739" lon="5.71838">
        <ele>1231.11</ele>
        <time>2014-07-05T12:40:34Z</time>
      </trkpt>
      <trkpt lat="46.07303" lon="5.71837">
        <ele>1230.14</ele>
        <time>2014-07-05T12:41:11Z</time>
      </trkpt>
      <trkpt lat="46.07214" lon="5.71827">
        <ele>1235.43</ele>
        <time>2014-07-05T12:42:00Z</time>
      </trkpt>
      <trkpt lat="46.07124" lon="5.71809">
        <ele>1238.8</ele>
        <time>2014-07-05T12:42:49Z</time>
      </trkpt>
      <trkpt lat="46.07037" lon="5.71779">
        <ele>1242.64</ele>
        <time>2014-07-05T12:43:39Z</time>
      </trkpt>
      <trkpt lat="46.06947" lon="5.71761">
        <ele>1243.12</ele>
        <time>2014-07-05T12:44:23Z</time>
      </trkpt>
      <trkpt lat="46.06863" lon="5.71736">
        <ele>1246.49</ele>
        <time>2014-07-05T12:46:21Z</time>
      </trkpt>
      <trkpt lat="46.06771" lon="5.71699">
        <ele>1242.16</ele>
        <time>2014-07-05T12:46:49Z</time>
      </trkpt>
      <trkpt lat="46.06685" lon="5.71656">
        <ele>1238.8</ele>
        <time>2014-07-05T12:47:15Z</time>
      </trkpt>
      <trkpt lat="46.06609" lon="5.71578">
        <ele>1237.35</ele>
        <time>2014-07-05T12:47:39Z</time>
      </trkpt>
      <trkpt lat="46.06535" lon="5.71508">
        <ele>1243.12</ele>
        <time>2014-07-05T12:48:34Z</time>
      </trkpt>
      <trkpt lat="46.06469" lon="5.71417">
        <ele>1233.51</ele>
        <time>2014-07-05T12:49:15Z</time>
      </trkpt>
      <trkpt lat="46.06401" lon="5.71336">
        <ele>1231.11</ele>
        <time>2014-07-05T12:50:26Z</time>
      </trkpt>
      <trkpt lat="46.06329" lon="5.71256">
        <ele>1224.86</ele>
        <time>2014-07-05T12:50:49Z</time>
      </trkpt>
      <trkpt lat="46.06246" lon="5.71204">
        <ele>1210.44</ele>
        <time>2014-07-05T12:52:04Z</time>
      </trkpt>
      <trkpt lat="46.06154" lon="5.71148">
        <ele>1204.19</ele>
        <time>2014-07-05T12:52:23Z</time>
      </trkpt>
      <trkpt lat="46.06094" lon="5.71058">
        <ele>1199.86</ele>
        <time>2014-07-05T12:53:12Z</time>
      </trkpt>
      <trkpt lat="46.06102" lon="5.70911">
        <ele>1190.25</ele>
        <time>2014-07-05T12:53:46Z</time>
      </trkpt>
      <trkpt lat="46.06027" lon="5.70827">
        <ele>1182.56</ele>
        <time>2014-07-05T12:54:03Z</time>
      </trkpt>
      <trkpt lat="46.0595" lon="5.70784">
        <ele>1180.16</ele>
        <time>2014-07-05T12:54:20Z</time>
      </trkpt>
      <trkpt lat="46.05866" lon="5.70726">
        <ele>1178.71</ele>
        <time>2014-07-05T12:54:54Z</time>
      </trkpt>
      <trkpt lat="46.05794" lon="5.70643">
        <ele>1167.18</ele>
        <time>2014-07-05T12:55:55Z</time>
      </trkpt>
      <trkpt lat="46.05726" lon="5.70553">
        <ele>1155.16</ele>
        <time>2014-07-05T12:56:18Z</time>
      </trkpt>
      <trkpt lat="46.05645" lon="5.70492">
        <ele>1146.03</ele>
        <time>2014-07-05T12:56:37Z</time>
      </trkpt>
      <trkpt lat="46.05605" lon="5.70381">
        <ele>1143.14</ele>
        <time>2014-07-05T12:58:21Z</time>
      </trkpt>
      <trkpt lat="46.05553" lon="5.70271">
        <ele>1140.26</ele>
        <time>2014-07-05T12:58:35Z</time>
      </trkpt>
      <trkpt lat="46.05505" lon="5.70176">
        <ele>1136.42</ele>
        <time>2014-07-05T12:58:50Z</time>
      </trkpt>
      <trkpt lat="46.05457" lon="5.7007">
        <ele>1134.01</ele>
        <time>2014-07-05T12:59:09Z</time>
      </trkpt>
      <trkpt lat="46.054" lon="5.6997">
        <ele>1129.21</ele>
        <time>2014-07-05T12:59:23Z</time>
      </trkpt>
      <trkpt lat="46.05334" lon="5.69875">
        <ele>1125.84</ele>
        <time>2014-07-05T12:59:40Z</time>
      </trkpt>
      <trkpt lat="46.05276" lon="5.69767">
        <ele>1122</ele>
        <time>2014-07-05T12:59:57Z</time>
      </trkpt>
      <trkpt lat="46.05267" lon="5.69627">
        <ele>1120.55</ele>
        <time>2014-07-05T13:00:42Z</time>
      </trkpt>
      <trkpt lat="46.05179" lon="5.69549">
        <ele>1127.28</ele>
        <time>2014-07-05T13:01:58Z</time>
      </trkpt>
      <trkpt lat="46.0509" lon="5.69633">
        <ele>1123.92</ele>
        <time>2014-07-05T13:03:01Z</time>
      </trkpt>
      <trkpt lat="46.04995" lon="5.69649">
        <ele>1121.03</ele>
        <time>2014-07-05T13:03:40Z</time>
      </trkpt>
      <trkpt lat="46.0489" lon="5.69642">
        <ele>1121.03</ele>
        <time>2014-07-05T13:04:31Z</time>
      </trkpt>
      <trkpt lat="46.04795" lon="5.69618">
        <ele>1114.79</ele>
        <time>2014-07-05T13:04:48Z</time>
      </trkpt>
      <trkpt lat="46.04695" lon="5.69597">
        <ele>1106.61</ele>
        <time>2014-07-05T13:05:11Z</time>
      </trkpt>
      <trkpt lat="46.04591" lon="5.69594">
        <ele>1097.96</ele>
        <time>2014-07-05T13:05:25Z</time>
      </trkpt>
      <trkpt lat="46.04503" lon="5.69587">
        <ele>1089.79</ele>
        <time>2014-07-05T13:05:38Z</time>
      </trkpt>
      <trkpt lat="46.044" lon="5.69595">
        <ele>1085.47</ele>
        <time>2014-07-05T13:05:52Z</time>
      </trkpt>
      <trkpt lat="46.0432" lon="5.69687">
        <ele>1077.29</ele>
        <time>2014-07-05T13:06:13Z</time>
      </trkpt>
      <trkpt lat="46.04235" lon="5.69682">
        <ele>1073.45</ele>
        <time>2014-07-05T13:06:34Z</time>
      </trkpt>
      <trkpt lat="46.04149" lon="5.69668">
        <ele>1069.6</ele>
        <time>2014-07-05T13:07:27Z</time>
      </trkpt>
      <trkpt lat="46.04064" lon="5.69715">
        <ele>1063.36</ele>
        <time>2014-07-05T13:07:52Z</time>
      </trkpt>
      <trkpt lat="46.04005" lon="5.69814">
        <ele>1051.82</ele>
        <time>2014-07-05T13:08:02Z</time>
      </trkpt>
      <trkpt lat="46.03933" lon="5.69893">
        <ele>1048.94</ele>
        <time>2014-07-05T13:08:13Z</time>
      </trkpt>
      <trkpt lat="46.03889" lon="5.70016">
        <ele>1039.8</ele>
        <time>2014-07-05T13:08:23Z</time>
      </trkpt>
      <trkpt lat="46.03866" lon="5.70139">
        <ele>1038.36</ele>
        <time>2014-07-05T13:08:34Z</time>
      </trkpt>
      <trkpt lat="46.03814" lon="5.70134">
        <ele>1041.73</ele>
        <time>2014-07-05T13:17:56Z</time>
      </trkpt>
      <trkpt lat="46.03835" lon="5.70155">
        <ele>1040.28</ele>
        <time>2014-07-05T13:24:02Z</time>
      </trkpt>
      <trkpt lat="46.0392" lon="5.70201">
        <ele>1037.4</ele>
        <time>2014-07-05T13:24:30Z</time>
      </trkpt>
    </trkseg>
  </trk>
</gpx>